createdAt,value
2023-01-26T00:02:14.757Z,4.42
2023-01-26T00:07:17.975Z,4.53
2023-01-26T00:12:22.579Z,4.68
2023-01-26T00:17:28.790Z,4.54
2023-01-26T00:22:32.232Z,4.54
2023-01-26T00:27:36.935Z,4.63
2023-01-26T00:32:40.186Z,4.67
2023-01-26T00:37:43.786Z,4.56
2023-01-26T00:42:48.553Z,4.45
2023-01-26T00:47:51.821Z,4.40
2023-01-26T00:52:55.139Z,4.42
2023-01-26T00:57:59.856Z,4.43
2023-01-26T01:03:03.451Z,4.53
2023-01-26T01:08:07.056Z,4.64
2023-01-26T01:13:11.732Z,4.72
2023-01-26T01:18:15.035Z,4.78
2023-01-26T01:23:18.358Z,4.74
2023-01-26T01:28:22.975Z,4.59
2023-01-26T01:33:26.543Z,4.48
2023-01-26T01:38:29.859Z,4.59
2023-01-26T01:43:35.054Z,4.54
2023-01-26T01:48:45.839Z,4.50
2023-01-26T01:53:52.842Z,4.60
2023-01-26T01:59:01.136Z,4.48
2023-01-26T02:04:07.291Z,4.45
2023-01-26T02:09:32.502Z,4.42
2023-01-26T02:14:37.097Z,4.48
2023-01-26T02:19:50.536Z,4.48
2023-01-26T02:24:58.227Z,4.41
2023-01-26T02:30:04.275Z,4.48
2023-01-26T02:35:07.952Z,4.51
2023-01-26T02:40:18.723Z,4.30
2023-01-26T02:45:24.354Z,4.12
2023-01-26T02:50:27.619Z,4.00
2023-01-26T02:55:30.830Z,4.06
2023-01-26T03:00:37.646Z,3.91
2023-01-26T03:05:41.010Z,3.87
2023-01-26T03:10:44.607Z,3.70
2023-01-26T03:15:52.958Z,3.60
2023-01-26T03:21:13.855Z,3.57
2023-01-26T03:26:34.375Z,3.58
2023-01-26T03:31:39.123Z,3.72
2023-01-26T03:36:42.386Z,3.78
2023-01-26T03:42:02.864Z,3.83
2023-01-26T03:47:24.562Z,3.81
2023-01-26T03:52:45.205Z,3.88
2023-01-26T03:57:49.692Z,3.96
2023-01-26T04:03:11.688Z,4.02
2023-01-26T04:08:30.631Z,4.02
2023-01-26T04:13:51.425Z,4.06
2023-01-26T04:19:14.084Z,3.90
2023-01-26T04:24:17.577Z,3.95
2023-01-26T04:29:21.420Z,3.84
2023-01-26T04:34:27.061Z,3.86
2023-01-26T04:39:30.318Z,3.69
2023-01-26T04:44:33.552Z,3.76
2023-01-26T04:49:38.185Z,3.75
2023-01-26T04:54:41.776Z,3.56
2023-01-26T04:59:44.960Z,3.53
2023-01-26T05:04:49.566Z,3.63
2023-01-26T05:09:52.798Z,3.60
2023-01-26T05:14:56.015Z,3.62
2023-01-26T05:20:00.680Z,3.58
2023-01-26T05:25:03.898Z,3.50
2023-01-26T05:30:08.243Z,3.26
2023-01-26T05:35:13.073Z,3.20
2023-01-26T05:40:16.449Z,3.17
2023-01-26T05:45:19.921Z,3.19
2023-01-26T05:50:24.459Z,3.16
2023-01-26T05:55:27.735Z,3.08
2023-01-26T06:00:31.003Z,3.04
2023-01-26T06:05:35.522Z,2.92
2023-01-26T06:10:38.664Z,2.89
2023-01-26T06:15:41.801Z,2.84
2023-01-26T06:20:46.466Z,2.76
2023-01-26T06:25:49.614Z,2.76
2023-01-26T06:30:53.616Z,2.75
2023-01-26T06:35:58.213Z,2.72
2023-01-26T06:41:03.254Z,2.67
2023-01-26T06:46:07.635Z,2.64
2023-01-26T06:51:45.299Z,2.64
2023-01-26T06:56:48.488Z,2.71
2023-01-26T07:01:51.660Z,2.81
2023-01-26T07:06:56.234Z,2.80
2023-01-26T07:11:59.336Z,2.90
2023-01-26T07:17:02.889Z,2.88
2023-01-26T07:22:07.455Z,2.94
2023-01-26T07:27:10.593Z,3.01
2023-01-26T07:32:13.914Z,3.08
2023-01-26T07:37:18.468Z,3.14
2023-01-26T07:42:21.829Z,3.05
2023-01-26T07:47:25.125Z,3.00
2023-01-26T07:52:29.797Z,2.95
2023-01-26T07:57:34.155Z,3.03
2023-01-26T08:02:37.415Z,3.02
2023-01-26T08:07:42.014Z,3.17
2023-01-26T08:12:45.221Z,3.28
2023-01-26T08:17:48.443Z,3.48
2023-01-26T08:22:53.119Z,3.40
2023-01-26T08:27:56.778Z,3.43
2023-01-26T08:33:00.091Z,3.55
2023-01-26T08:38:05.937Z,3.69
2023-01-26T08:43:09.151Z,3.86
2023-01-26T08:48:12.462Z,3.88
2023-01-26T08:53:17.462Z,3.92
2023-01-26T08:58:21.803Z,3.99
2023-01-26T09:03:25.199Z,4.20
2023-01-26T09:08:29.821Z,4.25
2023-01-26T09:13:33.053Z,4.43
2023-01-26T09:18:36.766Z,4.58
2023-01-26T09:23:41.363Z,4.89
2023-01-26T09:28:44.571Z,4.79
2023-01-26T09:33:49.237Z,4.83
2023-01-26T09:38:54.332Z,4.74
2023-01-26T09:44:01.440Z,4.84
2023-01-26T09:49:08.343Z,4.89
2023-01-26T09:54:24.999Z,4.93
2023-01-26T09:59:35.296Z,5.28
2023-01-26T10:04:42.055Z,5.50
2023-01-26T10:09:50.283Z,5.33
2023-01-26T10:14:57.843Z,5.52
2023-01-26T10:20:07.705Z,5.83
2023-01-26T10:25:19.748Z,5.81
2023-01-26T10:30:23.454Z,5.81
2023-01-26T10:35:27.201Z,5.87
2023-01-26T10:40:43.475Z,6.18
2023-01-26T10:45:48.277Z,6.18
2023-01-26T10:50:52.501Z,6.35
2023-01-26T10:56:02.850Z,6.46
2023-01-26T11:01:12.589Z,6.47
2023-01-26T11:06:17.470Z,6.69
2023-01-26T11:11:27.650Z,6.88
2023-01-26T11:16:30.997Z,7.05
2023-01-26T11:21:40.473Z,6.96
2023-01-26T11:27:03.403Z,7.05
2023-01-26T11:32:17.817Z,7.66
2023-01-26T11:37:38.499Z,8.07
2023-01-26T11:42:51.250Z,8.44
2023-01-26T11:48:07.880Z,8.57
2023-01-26T11:53:24.232Z,8.66
2023-01-26T11:58:36.843Z,8.79
2023-01-26T12:03:46.709Z,8.76
2023-01-26T12:08:54.913Z,8.75
2023-01-26T12:14:08.351Z,8.75
2023-01-26T12:19:18.249Z,8.98
2023-01-26T12:25:01.130Z,8.98
2023-01-26T12:30:03.005Z,9.25
2023-01-26T12:35:06.613Z,9.17
2023-01-26T12:40:20.118Z,9.11
2023-01-26T12:45:30.120Z,9.14
2023-01-26T12:50:40.125Z,8.86
2023-01-26T12:55:47.534Z,8.75
2023-01-26T13:01:03.789Z,8.67
2023-01-26T13:06:21.160Z,8.52
2023-01-26T13:11:45.307Z,8.45
2023-01-26T13:16:49.870Z,8.54
2023-01-26T13:21:53.013Z,8.59
2023-01-26T13:26:58.089Z,8.59
2023-01-26T13:32:24.356Z,8.74
2023-01-26T13:37:35.607Z,8.78
2023-01-26T13:42:56.519Z,8.84
2023-01-26T13:48:03.421Z,8.92
2023-01-26T13:53:33.892Z,9.33
2023-01-26T13:58:37.035Z,9.48
2023-01-26T14:03:41.751Z,9.36
2023-01-26T14:08:50.909Z,9.43
2023-01-26T14:13:57.114Z,10.49
2023-01-26T14:19:16.385Z,13.22
2023-01-26T14:24:21.195Z,13.63
2023-01-26T14:29:28.895Z,14.60
2023-01-26T14:34:33.451Z,14.65
2023-01-26T14:39:36.661Z,13.90
2023-01-26T14:44:39.899Z,14.08
2023-01-26T14:49:49.408Z,12.85
2023-01-26T14:54:54.580Z,12.63
2023-01-26T15:00:00.850Z,12.15
2023-01-26T15:05:13.374Z,11.83
2023-01-26T15:10:35.396Z,11.84
2023-01-26T15:15:40.662Z,12.13
2023-01-26T15:20:50.825Z,12.95
2023-01-26T15:25:54.127Z,12.11
2023-01-26T15:30:58.266Z,11.42
2023-01-26T15:36:02.854Z,11.37
2023-01-26T15:41:10.114Z,11.35
2023-01-26T15:46:13.232Z,12.08
2023-01-26T15:51:17.816Z,12.97
2023-01-26T15:56:20.979Z,12.91
2023-01-26T16:01:24.739Z,12.92
2023-01-26T16:06:31.130Z,13.26
2023-01-26T16:11:38.472Z,12.96
2023-01-26T16:16:41.872Z,13.03
2023-01-26T16:21:46.627Z,12.97
2023-01-26T16:26:49.813Z,13.23
2023-01-26T16:31:52.981Z,13.32
2023-01-26T16:36:57.541Z,13.30
2023-01-26T16:42:00.645Z,13.10
2023-01-26T16:47:05.938Z,12.35
2023-01-26T16:52:11.335Z,12.21
2023-01-26T16:57:14.454Z,12.31
2023-01-26T17:02:26.128Z,11.60
2023-01-26T17:07:30.758Z,11.29
2023-01-26T17:12:34.200Z,10.71
2023-01-26T17:17:37.343Z,10.38
2023-01-26T17:22:41.927Z,10.09
2023-01-26T17:27:45.236Z,9.90
2023-01-26T17:32:48.352Z,9.72
2023-01-26T17:37:53.401Z,9.53
2023-01-26T17:42:56.542Z,9.44
2023-01-26T17:47:59.697Z,9.30
2023-01-26T17:53:04.384Z,9.21
2023-01-26T17:58:10.750Z,9.07
2023-01-26T18:03:13.917Z,8.95
2023-01-26T18:08:18.698Z,8.78
2023-01-26T18:13:21.916Z,8.67
2023-01-26T18:18:26.030Z,8.55
2023-01-26T18:23:30.603Z,8.49
2023-01-26T18:28:33.812Z,8.45
2023-01-26T18:33:37.532Z,8.34
2023-01-26T18:38:42.979Z,8.31
2023-01-26T18:43:48.493Z,8.24
2023-01-26T18:48:53.969Z,8.12
2023-01-26T18:53:58.786Z,7.79
2023-01-26T18:59:02.085Z,7.67
2023-01-26T19:04:07.299Z,7.48
2023-01-26T19:09:11.884Z,7.53
2023-01-26T19:14:15.407Z,7.41
2023-01-26T19:19:18.533Z,7.29
2023-01-26T19:24:23.320Z,7.20
2023-01-26T19:29:26.612Z,7.19
2023-01-26T19:34:31.314Z,7.10
2023-01-26T19:39:36.558Z,7.04
2023-01-26T19:44:39.406Z,6.97
2023-01-26T19:49:42.531Z,6.89
2023-01-26T19:54:47.053Z,6.82
2023-01-26T19:59:50.305Z,6.76
2023-01-26T20:04:53.391Z,6.71
2023-01-26T20:09:57.947Z,6.61
2023-01-26T20:15:01.098Z,6.58
2023-01-26T20:20:04.553Z,6.48
2023-01-26T20:25:12.448Z,6.34
2023-01-26T20:30:16.814Z,6.26
2023-01-26T20:35:19.955Z,6.17
2023-01-26T20:40:24.607Z,6.11
2023-01-26T20:45:27.786Z,6.07
2023-01-26T20:50:36.190Z,6.03
2023-01-26T20:55:40.708Z,5.98
2023-01-26T21:00:43.869Z,5.94
2023-01-26T21:05:46.999Z,6.02
2023-01-26T21:10:51.676Z,6.03
2023-01-26T21:15:56.271Z,6.00
2023-01-26T21:21:01.255Z,6.08
2023-01-26T21:26:07.487Z,6.04
2023-01-26T21:31:12.502Z,5.89
2023-01-26T21:36:19.005Z,5.86
2023-01-26T21:41:43.671Z,5.90
2023-01-26T21:46:48.357Z,5.95
2023-01-26T21:52:09.239Z,5.77
2023-01-26T21:57:33.599Z,5.71
2023-01-26T22:02:37.045Z,5.76
2023-01-26T22:07:40.355Z,5.81
2023-01-26T22:12:44.985Z,5.86
2023-01-26T22:17:48.224Z,5.80
2023-01-26T22:22:51.499Z,5.66
2023-01-26T22:27:56.063Z,5.55
2023-01-26T22:32:59.279Z,5.46
2023-01-26T22:38:02.587Z,5.39
2023-01-26T22:43:08.919Z,5.36
2023-01-26T22:48:12.161Z,5.30
2023-01-26T22:53:15.475Z,5.38
2023-01-26T22:58:20.417Z,5.41
2023-01-26T23:03:25.755Z,5.35
2023-01-26T23:08:29.296Z,5.27
2023-01-26T23:13:34.278Z,5.41
2023-01-26T23:18:38.346Z,5.45
2023-01-26T23:23:42.284Z,5.43
2023-01-26T23:28:46.922Z,5.27
2023-01-26T23:33:50.248Z,5.34
2023-01-26T23:38:54.415Z,5.34
2023-01-26T23:43:59.044Z,5.34
2023-01-26T23:49:02.278Z,5.35
2023-01-26T23:54:05.609Z,5.30
2023-01-26T23:59:10.293Z,5.22
